sensor_id;sensor_type;location;lat;lon;timestamp;P1;durP1;ratioP1;P2;durP2;ratioP2
79249;SDS011;68679;51.030;7.584;2023-08-01T00:00:41;3.03;;;1.67;;
79249;SDS011;68679;51.030;7.584;2023-08-01T00:03:06;5.60;;;1.60;;
79249;SDS011;68679;51.030;7.584;2023-08-01T00:05:32;3.37;;;1.70;;
79249;SDS011;68679;51.030;7.584;2023-08-01T00:07:57;4.63;;;1.67;;
79249;SDS011;68679;51.030;7.584;2023-08-01T00:10:22;6.20;;;1.83;;
79249;SDS011;68679;51.030;7.584;2023-08-01T00:12:47;2.83;;;1.50;;
79249;SDS011;68679;51.030;7.584;2023-08-01T00:15:13;5.13;;;1.40;;
79249;SDS011;68679;51.030;7.584;2023-08-01T00:17:38;3.38;;;1.80;;
79249;SDS011;68679;51.030;7.584;2023-08-01T00:20:03;6.30;;;1.60;;
79249;SDS011;68679;51.030;7.584;2023-08-01T00:22:29;4.22;;;1.45;;
79249;SDS011;68679;51.030;7.584;2023-08-01T00:24:55;3.75;;;1.30;;
79249;SDS011;68679;51.030;7.584;2023-08-01T00:27:20;3.73;;;1.30;;
79249;SDS011;68679;51.030;7.584;2023-08-01T00:29:45;4.23;;;1.27;;
79249;SDS011;68679;51.030;7.584;2023-08-01T00:32:11;3.72;;;1.27;;
79249;SDS011;68679;51.030;7.584;2023-08-01T00:34:36;2.35;;;1.20;;
79249;SDS011;68679;51.030;7.584;2023-08-01T00:37:02;2.20;;;1.10;;
79249;SDS011;68679;51.030;7.584;2023-08-01T00:39:27;3.30;;;1.25;;
79249;SDS011;68679;51.030;7.584;2023-08-01T00:41:52;2.37;;;0.90;;
79249;SDS011;68679;51.030;7.584;2023-08-01T00:44:17;1.90;;;0.90;;
79249;SDS011;68679;51.030;7.584;2023-08-01T00:46:43;3.77;;;1.07;;
79249;SDS011;68679;51.030;7.584;2023-08-01T00:49:09;4.05;;;0.90;;
79249;SDS011;68679;51.030;7.584;2023-08-01T00:51:34;3.47;;;1.08;;
79249;SDS011;68679;51.030;7.584;2023-08-01T00:54:00;2.65;;;1.00;;
79249;SDS011;68679;51.030;7.584;2023-08-01T00:56:25;2.33;;;0.70;;
79249;SDS011;68679;51.030;7.584;2023-08-01T00:58:51;1.20;;;0.67;;
79249;SDS011;68679;51.030;7.584;2023-08-01T01:01:16;2.00;;;0.67;;
79249;SDS011;68679;51.030;7.584;2023-08-01T01:03:41;1.20;;;0.70;;
79249;SDS011;68679;51.030;7.584;2023-08-01T01:06:14;1.83;;;0.70;;
79249;SDS011;68679;51.030;7.584;2023-08-01T01:08:42;1.00;;;0.60;;
79249;SDS011;68679;51.030;7.584;2023-08-01T01:11:08;4.00;;;0.70;;
79249;SDS011;68679;51.030;7.584;2023-08-01T01:13:33;1.07;;;0.50;;
79249;SDS011;68679;51.030;7.584;2023-08-01T01:15:59;0.82;;;0.40;;
79249;SDS011;68679;51.030;7.584;2023-08-01T01:18:24;2.17;;;0.60;;
79249;SDS011;68679;51.030;7.584;2023-08-01T01:20:49;1.37;;;0.53;;
79249;SDS011;68679;51.030;7.584;2023-08-01T01:23:14;1.90;;;0.60;;
79249;SDS011;68679;51.030;7.584;2023-08-01T01:25:41;0.45;;;0.38;;
79249;SDS011;68679;51.030;7.584;2023-08-01T01:28:07;0.40;;;0.32;;
79249;SDS011;68679;51.030;7.584;2023-08-01T01:30:33;0.40;;;0.32;;
79249;SDS011;68679;51.030;7.584;2023-08-01T01:32:59;1.58;;;0.65;;
79249;SDS011;68679;51.030;7.584;2023-08-01T01:35:25;2.50;;;0.60;;
79249;SDS011;68679;51.030;7.584;2023-08-01T01:37:50;0.57;;;0.20;;
79249;SDS011;68679;51.030;7.584;2023-08-01T01:40:15;0.70;;;0.50;;
79249;SDS011;68679;51.030;7.584;2023-08-01T01:42:41;2.85;;;0.40;;
79249;SDS011;68679;51.030;7.584;2023-08-01T01:45:06;0.63;;;0.30;;
79249;SDS011;68679;51.030;7.584;2023-08-01T01:47:32;1.30;;;0.40;;
79249;SDS011;68679;51.030;7.584;2023-08-01T01:49:57;1.27;;;0.60;;
79249;SDS011;68679;51.030;7.584;2023-08-01T01:52:22;1.20;;;0.60;;
79249;SDS011;68679;51.030;7.584;2023-08-01T01:54:47;0.87;;;0.43;;
79249;SDS011;68679;51.030;7.584;2023-08-01T01:57:13;0.77;;;0.27;;
79249;SDS011;68679;51.030;7.584;2023-08-01T01:59:38;1.57;;;0.47;;
79249;SDS011;68679;51.030;7.584;2023-08-01T02:02:03;3.43;;;0.73;;
79249;SDS011;68679;51.030;7.584;2023-08-01T02:04:29;1.90;;;0.95;;
79249;SDS011;68679;51.030;7.584;2023-08-01T02:06:55;1.52;;;0.30;;
79249;SDS011;68679;51.030;7.584;2023-08-01T02:09:20;2.53;;;0.60;;
79249;SDS011;68679;51.030;7.584;2023-08-01T02:11:45;1.07;;;0.43;;
79249;SDS011;68679;51.030;7.584;2023-08-01T02:14:11;6.67;;;0.60;;
79249;SDS011;68679;51.030;7.584;2023-08-01T02:16:36;1.20;;;0.60;;
79249;SDS011;68679;51.030;7.584;2023-08-01T02:19:01;0.77;;;0.47;;
79249;SDS011;68679;51.030;7.584;2023-08-01T02:21:26;1.27;;;0.60;;
79249;SDS011;68679;51.030;7.584;2023-08-01T02:23:52;1.57;;;0.30;;
79249;SDS011;68679;51.030;7.584;2023-08-01T02:26:17;3.17;;;0.50;;
79249;SDS011;68679;51.030;7.584;2023-08-01T02:28:42;1.13;;;0.33;;
79249;SDS011;68679;51.030;7.584;2023-08-01T02:31:07;0.40;;;0.20;;
79249;SDS011;68679;51.030;7.584;2023-08-01T02:33:33;2.30;;;0.40;;
79249;SDS011;68679;51.030;7.584;2023-08-01T02:35:58;1.53;;;0.30;;
79249;SDS011;68679;51.030;7.584;2023-08-01T02:38:23;0.87;;;0.40;;
79249;SDS011;68679;51.030;7.584;2023-08-01T02:40:48;1.53;;;0.60;;
79249;SDS011;68679;51.030;7.584;2023-08-01T02:43:14;0.83;;;0.30;;
79249;SDS011;68679;51.030;7.584;2023-08-01T02:45:41;0.67;;;0.47;;
79249;SDS011;68679;51.030;7.584;2023-08-01T02:48:07;0.32;;;0.32;;
79249;SDS011;68679;51.030;7.584;2023-08-01T02:50:32;0.23;;;0.23;;
79249;SDS011;68679;51.030;7.584;2023-08-01T02:52:57;1.00;;;0.63;;
79249;SDS011;68679;51.030;7.584;2023-08-01T02:55:23;1.73;;;0.50;;
79249;SDS011;68679;51.030;7.584;2023-08-01T02:57:48;1.30;;;0.70;;
79249;SDS011;68679;51.030;7.584;2023-08-01T03:00:13;0.53;;;0.50;;
79249;SDS011;68679;51.030;7.584;2023-08-01T03:02:38;1.42;;;0.85;;
79249;SDS011;68679;51.030;7.584;2023-08-01T03:05:05;1.77;;;0.73;;
79249;SDS011;68679;51.030;7.584;2023-08-01T03:07:32;1.55;;;0.88;;
79249;SDS011;68679;51.030;7.584;2023-08-01T03:09:58;1.70;;;1.20;;
79249;SDS011;68679;51.030;7.584;2023-08-01T03:12:23;1.00;;;0.80;;
79249;SDS011;68679;51.030;7.584;2023-08-01T03:14:48;1.60;;;0.90;;
79249;SDS011;68679;51.030;7.584;2023-08-01T03:17:13;1.80;;;1.03;;
79249;SDS011;68679;51.030;7.584;2023-08-01T03:19:39;1.53;;;0.77;;
79249;SDS011;68679;51.030;7.584;2023-08-01T03:22:04;1.93;;;0.83;;
79249;SDS011;68679;51.030;7.584;2023-08-01T03:24:29;2.20;;;0.80;;
79249;SDS011;68679;51.030;7.584;2023-08-01T03:26:55;1.38;;;0.77;;
79249;SDS011;68679;51.030;7.584;2023-08-01T03:29:20;1.23;;;0.87;;
79249;SDS011;68679;51.030;7.584;2023-08-01T03:31:45;2.30;;;0.90;;
79249;SDS011;68679;51.030;7.584;2023-08-01T03:34:11;2.87;;;1.57;;
79249;SDS011;68679;51.030;7.584;2023-08-01T03:36:37;2.85;;;1.63;;
79249;SDS011;68679;51.030;7.584;2023-08-01T03:39:03;3.03;;;1.65;;
79249;SDS011;68679;51.030;7.584;2023-08-01T03:41:29;3.55;;;1.60;;
79249;SDS011;68679;51.030;7.584;2023-08-01T03:43:54;3.60;;;2.00;;
79249;SDS011;68679;51.030;7.584;2023-08-01T03:46:19;5.10;;;2.30;;
79249;SDS011;68679;51.030;7.584;2023-08-01T03:48:45;4.15;;;1.90;;
79249;SDS011;68679;51.030;7.584;2023-08-01T03:51:10;4.27;;;2.43;;
79249;SDS011;68679;51.030;7.584;2023-08-01T03:53:36;3.20;;;2.20;;
79249;SDS011;68679;51.030;7.584;2023-08-01T03:56:01;5.90;;;3.00;;
79249;SDS011;68679;51.030;7.584;2023-08-01T03:58:27;4.03;;;2.75;;
79249;SDS011;68679;51.030;7.584;2023-08-01T04:00:52;4.13;;;1.73;;
79249;SDS011;68679;51.030;7.584;2023-08-01T04:03:18;5.28;;;3.10;;
79249;SDS011;68679;51.030;7.584;2023-08-01T04:05:43;5.27;;;3.10;;
79249;SDS011;68679;51.030;7.584;2023-08-01T04:08:09;5.00;;;3.00;;
79249;SDS011;68679;51.030;7.584;2023-08-01T04:10:34;5.17;;;3.43;;
79249;SDS011;68679;51.030;7.584;2023-08-01T04:12:59;5.47;;;3.77;;
79249;SDS011;68679;51.030;7.584;2023-08-01T04:15:24;7.20;;;3.92;;
79249;SDS011;68679;51.030;7.584;2023-08-01T04:17:50;6.70;;;3.80;;
79249;SDS011;68679;51.030;7.584;2023-08-01T04:20:15;7.80;;;4.95;;
79249;SDS011;68679;51.030;7.584;2023-08-01T04:22:40;7.22;;;4.70;;
79249;SDS011;68679;51.030;7.584;2023-08-01T04:25:06;8.60;;;4.73;;
79249;SDS011;68679;51.030;7.584;2023-08-01T04:27:32;7.38;;;4.90;;
79249;SDS011;68679;51.030;7.584;2023-08-01T04:29:57;7.20;;;4.23;;
79249;SDS011;68679;51.030;7.584;2023-08-01T04:32:23;10.38;;;4.82;;
79249;SDS011;68679;51.030;7.584;2023-08-01T04:34:48;9.02;;;5.80;;
79249;SDS011;68679;51.030;7.584;2023-08-01T04:37:13;9.45;;;6.25;;
79249;SDS011;68679;51.030;7.584;2023-08-01T04:39:39;11.63;;;5.97;;
79249;SDS011;68679;51.030;7.584;2023-08-01T04:42:04;10.80;;;6.17;;
79249;SDS011;68679;51.030;7.584;2023-08-01T04:44:30;11.48;;;5.22;;
79249;SDS011;68679;51.030;7.584;2023-08-01T04:46:55;5.75;;;3.90;;
79249;SDS011;68679;51.030;7.584;2023-08-01T04:49:21;11.75;;;5.20;;
79249;SDS011;68679;51.030;7.584;2023-08-01T04:51:48;12.23;;;4.32;;
79249;SDS011;68679;51.030;7.584;2023-08-01T04:54:13;9.13;;;4.53;;
79249;SDS011;68679;51.030;7.584;2023-08-01T04:56:39;8.77;;;5.17;;
79249;SDS011;68679;51.030;7.584;2023-08-01T04:59:04;9.47;;;5.10;;
79249;SDS011;68679;51.030;7.584;2023-08-01T05:01:29;9.73;;;4.93;;
79249;SDS011;68679;51.030;7.584;2023-08-01T05:03:55;8.77;;;4.53;;
79249;SDS011;68679;51.030;7.584;2023-08-01T05:06:20;12.05;;;6.95;;
79249;SDS011;68679;51.030;7.584;2023-08-01T05:08:45;9.90;;;5.30;;
79249;SDS011;68679;51.030;7.584;2023-08-01T05:11:11;11.20;;;6.20;;
79249;SDS011;68679;51.030;7.584;2023-08-01T05:13:36;9.43;;;5.03;;
79249;SDS011;68679;51.030;7.584;2023-08-01T05:16:01;11.10;;;6.13;;
79249;SDS011;68679;51.030;7.584;2023-08-01T05:18:28;11.10;;;5.05;;
79249;SDS011;68679;51.030;7.584;2023-08-01T05:20:53;12.20;;;7.53;;
79249;SDS011;68679;51.030;7.584;2023-08-01T05:23:18;11.17;;;6.10;;
79249;SDS011;68679;51.030;7.584;2023-08-01T05:25:43;14.07;;;6.67;;
79249;SDS011;68679;51.030;7.584;2023-08-01T05:28:09;10.57;;;6.20;;
79249;SDS011;68679;51.030;7.584;2023-08-01T05:30:34;12.43;;;5.78;;
79249;SDS011;68679;51.030;7.584;2023-08-01T05:32:59;12.20;;;5.93;;
79249;SDS011;68679;51.030;7.584;2023-08-01T05:35:25;15.32;;;6.78;;
79249;SDS011;68679;51.030;7.584;2023-08-01T05:37:50;16.20;;;7.30;;
79249;SDS011;68679;51.030;7.584;2023-08-01T05:40:16;12.00;;;6.88;;
79249;SDS011;68679;51.030;7.584;2023-08-01T05:42:41;13.07;;;6.35;;
79249;SDS011;68679;51.030;7.584;2023-08-01T05:45:07;15.07;;;7.67;;
79249;SDS011;68679;51.030;7.584;2023-08-01T05:47:32;11.40;;;5.28;;
79249;SDS011;68679;51.030;7.584;2023-08-01T05:49:58;19.38;;;10.60;;
79249;SDS011;68679;51.030;7.584;2023-08-01T05:52:23;14.93;;;7.83;;
79249;SDS011;68679;51.030;7.584;2023-08-01T05:54:49;18.75;;;7.78;;
79249;SDS011;68679;51.030;7.584;2023-08-01T05:57:14;18.53;;;8.57;;
79249;SDS011;68679;51.030;7.584;2023-08-01T05:59:39;16.60;;;7.70;;
79249;SDS011;68679;51.030;7.584;2023-08-01T06:02:05;15.80;;;7.25;;
79249;SDS011;68679;51.030;7.584;2023-08-01T06:04:31;18.15;;;8.50;;
79249;SDS011;68679;51.030;7.584;2023-08-01T06:06:56;13.85;;;7.75;;
79249;SDS011;68679;51.030;7.584;2023-08-01T06:09:22;16.73;;;7.60;;
79249;SDS011;68679;51.030;7.584;2023-08-01T06:11:47;15.90;;;6.75;;
79249;SDS011;68679;51.030;7.584;2023-08-01T06:14:12;17.97;;;7.73;;
79249;SDS011;68679;51.030;7.584;2023-08-01T06:16:38;14.52;;;6.82;;
79249;SDS011;68679;51.030;7.584;2023-08-01T06:19:03;13.13;;;6.63;;
79249;SDS011;68679;51.030;7.584;2023-08-01T06:21:29;12.57;;;6.85;;
79249;SDS011;68679;51.030;7.584;2023-08-01T06:23:54;12.75;;;6.18;;
79249;SDS011;68679;51.030;7.584;2023-08-01T06:26:19;14.23;;;7.63;;
79249;SDS011;68679;51.030;7.584;2023-08-01T06:28:45;17.43;;;7.00;;
79249;SDS011;68679;51.030;7.584;2023-08-01T06:31:10;12.13;;;7.23;;
79249;SDS011;68679;51.030;7.584;2023-08-01T06:33:35;15.03;;;7.80;;
79249;SDS011;68679;51.030;7.584;2023-08-01T06:36:01;14.68;;;7.60;;
79249;SDS011;68679;51.030;7.584;2023-08-01T06:38:26;17.30;;;8.63;;
79249;SDS011;68679;51.030;7.584;2023-08-01T06:40:51;15.73;;;8.43;;
79249;SDS011;68679;51.030;7.584;2023-08-01T06:43:17;12.73;;;7.73;;
79249;SDS011;68679;51.030;7.584;2023-08-01T06:45:42;16.47;;;7.60;;
79249;SDS011;68679;51.030;7.584;2023-08-01T06:48:07;14.97;;;8.30;;
79249;SDS011;68679;51.030;7.584;2023-08-01T06:50:33;15.00;;;6.57;;
79249;SDS011;68679;51.030;7.584;2023-08-01T06:52:59;14.25;;;7.72;;
79249;SDS011;68679;51.030;7.584;2023-08-01T06:55:25;18.92;;;7.68;;
79249;SDS011;68679;51.030;7.584;2023-08-01T06:57:51;12.53;;;7.40;;
79249;SDS011;68679;51.030;7.584;2023-08-01T07:00:16;15.33;;;7.27;;
79249;SDS011;68679;51.030;7.584;2023-08-01T07:02:41;15.30;;;8.02;;
79249;SDS011;68679;51.030;7.584;2023-08-01T07:05:07;13.83;;;7.17;;
79249;SDS011;68679;51.030;7.584;2023-08-01T07:07:32;14.13;;;7.80;;
79249;SDS011;68679;51.030;7.584;2023-08-01T07:09:57;12.60;;;7.55;;
79249;SDS011;68679;51.030;7.584;2023-08-01T07:12:23;14.83;;;6.93;;
79249;SDS011;68679;51.030;7.584;2023-08-01T07:14:48;13.03;;;6.87;;
79249;SDS011;68679;51.030;7.584;2023-08-01T07:17:13;13.63;;;6.43;;
79249;SDS011;68679;51.030;7.584;2023-08-01T07:19:39;10.03;;;5.33;;
79249;SDS011;68679;51.030;7.584;2023-08-01T07:22:04;14.80;;;7.13;;
79249;SDS011;68679;51.030;7.584;2023-08-01T07:24:29;13.57;;;6.88;;
79249;SDS011;68679;51.030;7.584;2023-08-01T07:26:54;9.53;;;6.63;;
79249;SDS011;68679;51.030;7.584;2023-08-01T07:29:20;12.90;;;6.23;;
79249;SDS011;68679;51.030;7.584;2023-08-01T07:31:45;16.63;;;6.83;;
79249;SDS011;68679;51.030;7.584;2023-08-01T07:34:11;16.17;;;7.68;;
79249;SDS011;68679;51.030;7.584;2023-08-01T07:36:36;11.38;;;6.78;;
79249;SDS011;68679;51.030;7.584;2023-08-01T07:39:01;14.90;;;7.43;;
79249;SDS011;68679;51.030;7.584;2023-08-01T07:41:28;12.93;;;6.07;;
79249;SDS011;68679;51.030;7.584;2023-08-01T07:43:53;14.50;;;6.70;;
79249;SDS011;68679;51.030;7.584;2023-08-01T07:46:18;10.43;;;6.23;;
79249;SDS011;68679;51.030;7.584;2023-08-01T07:48:44;14.37;;;6.50;;
79249;SDS011;68679;51.030;7.584;2023-08-01T07:51:09;8.88;;;5.28;;
79249;SDS011;68679;51.030;7.584;2023-08-01T07:53:36;11.90;;;5.95;;
79249;SDS011;68679;51.030;7.584;2023-08-01T07:56:01;9.60;;;4.83;;
79249;SDS011;68679;51.030;7.584;2023-08-01T07:58:27;14.45;;;5.68;;
79249;SDS011;68679;51.030;7.584;2023-08-01T08:00:53;11.88;;;5.88;;
79249;SDS011;68679;51.030;7.584;2023-08-01T08:03:18;12.25;;;6.00;;
79249;SDS011;68679;51.030;7.584;2023-08-01T08:05:47;12.30;;;5.63;;
79249;SDS011;68679;51.030;7.584;2023-08-01T08:08:12;8.10;;;4.43;;
79249;SDS011;68679;51.030;7.584;2023-08-01T08:10:37;10.67;;;5.43;;
79249;SDS011;68679;51.030;7.584;2023-08-01T08:13:03;11.10;;;5.17;;
79249;SDS011;68679;51.030;7.584;2023-08-01T08:15:28;10.37;;;5.57;;
79249;SDS011;68679;51.030;7.584;2023-08-01T08:17:58;13.70;;;5.63;;
79249;SDS011;68679;51.030;7.584;2023-08-01T08:20:23;14.48;;;5.88;;
79249;SDS011;68679;51.030;7.584;2023-08-01T08:22:49;10.23;;;5.27;;
79249;SDS011;68679;51.030;7.584;2023-08-01T08:25:14;12.97;;;6.07;;
79249;SDS011;68679;51.030;7.584;2023-08-01T08:27:39;12.67;;;6.20;;
79249;SDS011;68679;51.030;7.584;2023-08-01T08:30:05;12.23;;;6.20;;
79249;SDS011;68679;51.030;7.584;2023-08-01T08:32:31;11.48;;;5.80;;
79249;SDS011;68679;51.030;7.584;2023-08-01T08:34:56;10.53;;;5.23;;
79249;SDS011;68679;51.030;7.584;2023-08-01T08:37:21;11.00;;;5.70;;
79249;SDS011;68679;51.030;7.584;2023-08-01T08:39:47;12.55;;;5.63;;
79249;SDS011;68679;51.030;7.584;2023-08-01T08:42:12;8.70;;;5.25;;
79249;SDS011;68679;51.030;7.584;2023-08-01T08:44:44;9.20;;;5.28;;
79249;SDS011;68679;51.030;7.584;2023-08-01T08:47:13;11.73;;;5.45;;
79249;SDS011;68679;51.030;7.584;2023-08-01T08:49:43;12.40;;;5.55;;
79249;SDS011;68679;51.030;7.584;2023-08-01T08:52:10;12.43;;;4.25;;
79249;SDS011;68679;51.030;7.584;2023-08-01T08:54:36;11.07;;;5.13;;
79249;SDS011;68679;51.030;7.584;2023-08-01T08:57:05;9.30;;;5.15;;
79249;SDS011;68679;51.030;7.584;2023-08-01T08:59:31;11.35;;;5.32;;
79249;SDS011;68679;51.030;7.584;2023-08-01T09:01:58;10.55;;;5.15;;
79249;SDS011;68679;51.030;7.584;2023-08-01T09:04:26;11.73;;;5.70;;
79249;SDS011;68679;51.030;7.584;2023-08-01T09:06:53;15.68;;;7.45;;
79249;SDS011;68679;51.030;7.584;2023-08-01T09:09:23;13.20;;;6.88;;
79249;SDS011;68679;51.030;7.584;2023-08-01T09:11:51;11.15;;;5.40;;
79249;SDS011;68679;51.030;7.584;2023-08-01T09:14:17;11.27;;;5.65;;
79249;SDS011;68679;51.030;7.584;2023-08-01T09:16:44;10.07;;;4.60;;
79249;SDS011;68679;51.030;7.584;2023-08-01T09:19:15;10.55;;;5.15;;
79249;SDS011;68679;51.030;7.584;2023-08-01T09:21:42;10.18;;;4.40;;
79249;SDS011;68679;51.030;7.584;2023-08-01T09:24:08;10.43;;;4.47;;
79249;SDS011;68679;51.030;7.584;2023-08-01T09:26:38;10.27;;;4.00;;
79249;SDS011;68679;51.030;7.584;2023-08-01T09:29:04;10.13;;;4.70;;
79249;SDS011;68679;51.030;7.584;2023-08-01T09:31:30;8.40;;;3.70;;
79249;SDS011;68679;51.030;7.584;2023-08-01T09:34:03;9.18;;;4.53;;
79249;SDS011;68679;51.030;7.584;2023-08-01T09:36:30;11.13;;;4.72;;
79249;SDS011;68679;51.030;7.584;2023-08-01T09:39:00;8.75;;;4.15;;
79249;SDS011;68679;51.030;7.584;2023-08-01T09:41:28;13.75;;;4.32;;
79249;SDS011;68679;51.030;7.584;2023-08-01T09:43:54;7.72;;;3.88;;
79249;SDS011;68679;51.030;7.584;2023-08-01T09:46:19;12.07;;;4.85;;
79249;SDS011;68679;51.030;7.584;2023-08-01T09:48:45;8.35;;;4.28;;
79249;SDS011;68679;51.030;7.584;2023-08-01T09:51:11;14.67;;;5.23;;
79249;SDS011;68679;51.030;7.584;2023-08-01T09:56:25;12.82;;;5.75;;
79249;SDS011;68679;51.030;7.584;2023-08-01T09:58:52;12.65;;;4.57;;
79249;SDS011;68679;51.030;7.584;2023-08-01T10:01:20;9.48;;;3.90;;
79249;SDS011;68679;51.030;7.584;2023-08-01T10:03:47;8.00;;;4.25;;
79249;SDS011;68679;51.030;7.584;2023-08-01T10:06:17;10.23;;;4.38;;
79249;SDS011;68679;51.030;7.584;2023-08-01T10:08:45;9.68;;;4.63;;
79249;SDS011;68679;51.030;7.584;2023-08-01T10:11:11;8.95;;;4.57;;
79249;SDS011;68679;51.030;7.584;2023-08-01T10:13:39;11.85;;;4.32;;
79249;SDS011;68679;51.030;7.584;2023-08-01T10:16:06;8.95;;;4.40;;
79249;SDS011;68679;51.030;7.584;2023-08-01T10:18:32;6.55;;;3.83;;
79249;SDS011;68679;51.030;7.584;2023-08-01T10:20:59;9.20;;;3.97;;
79249;SDS011;68679;51.030;7.584;2023-08-01T10:23:26;10.38;;;4.10;;
79249;SDS011;68679;51.030;7.584;2023-08-01T10:25:52;8.77;;;3.60;;
79249;SDS011;68679;51.030;7.584;2023-08-01T10:28:18;6.55;;;3.10;;
79249;SDS011;68679;51.030;7.584;2023-08-01T10:30:43;9.17;;;4.23;;
79249;SDS011;68679;51.030;7.584;2023-08-01T10:33:08;6.40;;;3.63;;
79249;SDS011;68679;51.030;7.584;2023-08-01T10:35:38;8.18;;;4.00;;
79249;SDS011;68679;51.030;7.584;2023-08-01T10:38:08;8.73;;;4.35;;
79249;SDS011;68679;51.030;7.584;2023-08-01T10:43:20;9.55;;;3.70;;
79249;SDS011;68679;51.030;7.584;2023-08-01T10:45:46;7.10;;;3.78;;
79249;SDS011;68679;51.030;7.584;2023-08-01T10:48:13;8.23;;;3.80;;
79249;SDS011;68679;51.030;7.584;2023-08-01T10:50:39;8.07;;;3.63;;
79249;SDS011;68679;51.030;7.584;2023-08-01T10:53:05;7.57;;;3.33;;
79249;SDS011;68679;51.030;7.584;2023-08-01T10:55:42;8.45;;;4.15;;
79249;SDS011;68679;51.030;7.584;2023-08-01T10:58:09;9.10;;;3.85;;
79249;SDS011;68679;51.030;7.584;2023-08-01T11:00:35;10.25;;;4.03;;
79249;SDS011;68679;51.030;7.584;2023-08-01T11:03:00;6.50;;;3.53;;
79249;SDS011;68679;51.030;7.584;2023-08-01T11:05:25;10.93;;;3.90;;
79249;SDS011;68679;51.030;7.584;2023-08-01T11:07:56;9.88;;;3.47;;
79249;SDS011;68679;51.030;7.584;2023-08-01T11:10:26;5.20;;;2.85;;
79249;SDS011;68679;51.030;7.584;2023-08-01T11:12:53;5.70;;;3.10;;
79249;SDS011;68679;51.030;7.584;2023-08-01T11:15:18;7.82;;;3.08;;
79249;SDS011;68679;51.030;7.584;2023-08-01T11:17:47;8.18;;;3.58;;
79249;SDS011;68679;51.030;7.584;2023-08-01T11:20:18;5.90;;;2.17;;
79249;SDS011;68679;51.030;7.584;2023-08-01T11:22:58;4.57;;;2.53;;
79249;SDS011;68679;51.030;7.584;2023-08-01T11:25:32;10.02;;;3.22;;
79249;SDS011;68679;51.030;7.584;2023-08-01T11:28:05;6.75;;;2.85;;
79249;SDS011;68679;51.030;7.584;2023-08-01T11:30:32;9.60;;;3.08;;
79249;SDS011;68679;51.030;7.584;2023-08-01T11:32:58;10.48;;;3.60;;
79249;SDS011;68679;51.030;7.584;2023-08-01T11:35:23;8.32;;;3.63;;
79249;SDS011;68679;51.030;7.584;2023-08-01T11:37:49;7.27;;;3.27;;
79249;SDS011;68679;51.030;7.584;2023-08-01T11:40:16;9.02;;;3.72;;
79249;SDS011;68679;51.030;7.584;2023-08-01T11:42:42;13.18;;;6.68;;
79249;SDS011;68679;51.030;7.584;2023-08-01T11:45:08;50.17;;;28.42;;
79249;SDS011;68679;51.030;7.584;2023-08-01T11:47:34;11.25;;;5.70;;
79249;SDS011;68679;51.030;7.584;2023-08-01T11:49:59;10.18;;;4.00;;
79249;SDS011;68679;51.030;7.584;2023-08-01T11:52:25;9.30;;;3.60;;
79249;SDS011;68679;51.030;7.584;2023-08-01T11:54:51;14.63;;;3.33;;
79249;SDS011;68679;51.030;7.584;2023-08-01T11:57:19;9.63;;;3.17;;
79249;SDS011;68679;51.030;7.584;2023-08-01T11:59:51;5.20;;;2.90;;
79249;SDS011;68679;51.030;7.584;2023-08-01T12:04:50;6.25;;;3.58;;
79249;SDS011;68679;51.030;7.584;2023-08-01T12:07:16;6.47;;;3.13;;
79249;SDS011;68679;51.030;7.584;2023-08-01T12:09:42;6.05;;;3.13;;
79249;SDS011;68679;51.030;7.584;2023-08-01T12:12:08;6.15;;;3.25;;
79249;SDS011;68679;51.030;7.584;2023-08-01T12:14:38;6.45;;;2.88;;
79249;SDS011;68679;51.030;7.584;2023-08-01T12:17:05;6.50;;;4.45;;
79249;SDS011;68679;51.030;7.584;2023-08-01T12:19:30;9.00;;;4.20;;
79249;SDS011;68679;51.030;7.584;2023-08-01T12:21:55;9.83;;;3.17;;
79249;SDS011;68679;51.030;7.584;2023-08-01T12:24:20;8.57;;;3.00;;
79249;SDS011;68679;51.030;7.584;2023-08-01T12:26:46;7.10;;;3.50;;
79249;SDS011;68679;51.030;7.584;2023-08-01T12:29:11;6.10;;;3.03;;
79249;SDS011;68679;51.030;7.584;2023-08-01T12:31:37;7.05;;;2.90;;
79249;SDS011;68679;51.030;7.584;2023-08-01T12:34:02;3.60;;;2.05;;
79249;SDS011;68679;51.030;7.584;2023-08-01T12:36:28;6.47;;;2.53;;
79249;SDS011;68679;51.030;7.584;2023-08-01T12:38:53;5.53;;;2.20;;
79249;SDS011;68679;51.030;7.584;2023-08-01T12:41:18;5.90;;;2.75;;
79249;SDS011;68679;51.030;7.584;2023-08-01T12:43:44;6.05;;;2.42;;
79249;SDS011;68679;51.030;7.584;2023-08-01T12:46:09;5.17;;;2.40;;
79249;SDS011;68679;51.030;7.584;2023-08-01T12:48:34;5.40;;;2.17;;
79249;SDS011;68679;51.030;7.584;2023-08-01T12:51:00;5.30;;;2.00;;
79249;SDS011;68679;51.030;7.584;2023-08-01T12:53:25;6.23;;;1.80;;
79249;SDS011;68679;51.030;7.584;2023-08-01T12:55:51;5.63;;;2.30;;
79249;SDS011;68679;51.030;7.584;2023-08-01T12:58:16;3.33;;;1.80;;
79249;SDS011;68679;51.030;7.584;2023-08-01T13:00:43;5.25;;;2.10;;
79249;SDS011;68679;51.030;7.584;2023-08-01T13:03:09;4.55;;;1.80;;
79249;SDS011;68679;51.030;7.584;2023-08-01T13:05:35;5.18;;;2.05;;
79249;SDS011;68679;51.030;7.584;2023-08-01T13:08:02;4.07;;;2.00;;
79249;SDS011;68679;51.030;7.584;2023-08-01T13:10:34;4.60;;;2.53;;
79249;SDS011;68679;51.030;7.584;2023-08-01T13:13:01;4.88;;;2.33;;
79249;SDS011;68679;51.030;7.584;2023-08-01T13:15:26;6.10;;;2.63;;
79249;SDS011;68679;51.030;7.584;2023-08-01T13:17:52;5.60;;;2.22;;
79249;SDS011;68679;51.030;7.584;2023-08-01T13:20:18;7.38;;;3.15;;
79249;SDS011;68679;51.030;7.584;2023-08-01T13:22:49;6.00;;;2.50;;
79249;SDS011;68679;51.030;7.584;2023-08-01T13:25:16;7.88;;;2.53;;
79249;SDS011;68679;51.030;7.584;2023-08-01T13:27:42;5.82;;;2.80;;
79249;SDS011;68679;51.030;7.584;2023-08-01T13:30:07;6.75;;;2.90;;
79249;SDS011;68679;51.030;7.584;2023-08-01T13:32:33;7.07;;;2.70;;
79249;SDS011;68679;51.030;7.584;2023-08-01T13:34:59;5.25;;;2.67;;
79249;SDS011;68679;51.030;7.584;2023-08-01T13:37:25;7.40;;;3.22;;
79249;SDS011;68679;51.030;7.584;2023-08-01T13:39:51;10.15;;;3.65;;
79249;SDS011;68679;51.030;7.584;2023-08-01T13:42:16;9.18;;;3.60;;
79249;SDS011;68679;51.030;7.584;2023-08-01T13:44:42;9.23;;;3.73;;
79249;SDS011;68679;51.030;7.584;2023-08-01T13:47:07;7.43;;;3.97;;
79249;SDS011;68679;51.030;7.584;2023-08-01T13:49:32;6.78;;;3.35;;
79249;SDS011;68679;51.030;7.584;2023-08-01T13:51:58;7.38;;;3.40;;
79249;SDS011;68679;51.030;7.584;2023-08-01T13:54:24;6.85;;;3.47;;
79249;SDS011;68679;51.030;7.584;2023-08-01T13:56:49;6.00;;;3.70;;
79249;SDS011;68679;51.030;7.584;2023-08-01T13:59:14;7.10;;;3.50;;
79249;SDS011;68679;51.030;7.584;2023-08-01T14:01:40;6.00;;;3.42;;
79249;SDS011;68679;51.030;7.584;2023-08-01T14:04:05;5.83;;;3.37;;
79249;SDS011;68679;51.030;7.584;2023-08-01T14:06:31;7.60;;;3.77;;
79249;SDS011;68679;51.030;7.584;2023-08-01T14:08:56;5.87;;;3.07;;
79249;SDS011;68679;51.030;7.584;2023-08-01T14:11:21;5.40;;;3.50;;
79249;SDS011;68679;51.030;7.584;2023-08-01T14:13:46;9.15;;;3.58;;
79249;SDS011;68679;51.030;7.584;2023-08-01T14:16:12;7.73;;;3.50;;
79249;SDS011;68679;51.030;7.584;2023-08-01T14:18:37;8.03;;;3.30;;
79249;SDS011;68679;51.030;7.584;2023-08-01T14:21:03;6.82;;;3.40;;
79249;SDS011;68679;51.030;7.584;2023-08-01T14:23:28;7.77;;;3.37;;
79249;SDS011;68679;51.030;7.584;2023-08-01T14:25:54;7.75;;;3.17;;
79249;SDS011;68679;51.030;7.584;2023-08-01T14:28:19;5.07;;;2.53;;
79249;SDS011;68679;51.030;7.584;2023-08-01T14:30:45;5.75;;;2.88;;
79249;SDS011;68679;51.030;7.584;2023-08-01T14:33:10;6.57;;;2.53;;
79249;SDS011;68679;51.030;7.584;2023-08-01T14:35:37;9.35;;;2.95;;
79249;SDS011;68679;51.030;7.584;2023-08-01T14:38:03;6.60;;;2.70;;
79249;SDS011;68679;51.030;7.584;2023-08-01T14:40:29;7.13;;;3.30;;
79249;SDS011;68679;51.030;7.584;2023-08-01T14:42:55;5.60;;;2.97;;